createdAt,value
2017-07-19T00:00:41.936Z,19.6
2017-07-19T00:01:49.436Z,19.6
2017-07-19T00:02:56.930Z,19.6
2017-07-19T00:04:04.433Z,19.6
2017-07-19T00:05:12.226Z,19.6
2017-07-19T00:06:19.722Z,19.5
2017-07-19T00:07:26.887Z,19.5
2017-07-19T00:08:34.060Z,19.5
2017-07-19T00:09:41.574Z,19.5
2017-07-19T00:10:49.384Z,19.4
2017-07-19T00:11:56.555Z,19.4
2017-07-19T00:13:04.065Z,19.4
2017-07-19T00:14:11.566Z,19.4
2017-07-19T00:15:19.055Z,19.4
2017-07-19T00:16:26.860Z,19.3
2017-07-19T00:17:34.038Z,19.3
2017-07-19T00:18:41.538Z,19.3
2017-07-19T00:19:49.037Z,19.2
2017-07-19T00:20:56.536Z,19.2
2017-07-19T00:22:04.327Z,19.2
2017-07-19T00:23:11.827Z,19.1
2017-07-19T00:24:19.326Z,19.1
2017-07-19T00:25:26.837Z,19.1
2017-07-19T00:26:34.341Z,19.1
2017-07-19T00:27:42.143Z,19.1
2017-07-19T00:28:49.638Z,19.1
2017-07-19T00:29:57.137Z,19
2017-07-19T00:31:04.634Z,19
2017-07-19T00:32:12.131Z,19
2017-07-19T00:33:19.935Z,18.9
2017-07-19T00:34:27.107Z,18.9
2017-07-19T00:35:34.603Z,18.9
2017-07-19T00:36:42.110Z,18.9
2017-07-19T00:37:49.604Z,18.9
2017-07-19T00:38:57.401Z,18.9
2017-07-19T00:40:04.898Z,18.9
2017-07-19T00:41:12.400Z,18.9
2017-07-19T00:42:19.899Z,18.9
2017-07-19T00:43:27.387Z,18.9
2017-07-19T00:44:35.189Z,18.8
2017-07-19T00:45:42.696Z,18.8
2017-07-19T00:46:50.202Z,18.8
2017-07-19T00:47:57.710Z,18.8
2017-07-19T00:49:04.900Z,18.8
2017-07-19T00:50:12.710Z,18.8
2017-07-19T00:51:20.210Z,18.8
2017-07-19T00:52:27.708Z,18.8
2017-07-19T00:53:35.248Z,18.8
2017-07-19T00:54:42.742Z,18.8
2017-07-19T00:55:50.542Z,18.8
2017-07-19T00:56:58.296Z,18.8
2017-07-19T00:58:05.464Z,18.8
2017-07-19T00:59:12.966Z,18.7
2017-07-19T01:00:20.133Z,18.7
2017-07-19T01:01:27.932Z,18.7
2017-07-19T01:02:35.433Z,18.7
2017-07-19T01:03:42.931Z,18.7
2017-07-19T01:04:50.428Z,18.7
2017-07-19T01:05:57.933Z,18.7
2017-07-19T01:07:05.732Z,18.7
2017-07-19T01:08:13.236Z,18.7
2017-07-19T01:09:20.734Z,18.7
2017-07-19T01:10:28.211Z,18.7
2017-07-19T01:11:35.699Z,18.6
2017-07-19T01:12:43.482Z,18.6
2017-07-19T01:13:50.973Z,18.6
2017-07-19T01:14:58.130Z,18.6
2017-07-19T01:16:05.613Z,18.6
2017-07-19T01:17:13.092Z,18.6
2017-07-19T01:18:20.880Z,18.6
2017-07-19T01:19:28.047Z,18.6
2017-07-19T01:20:35.542Z,18.6
2017-07-19T01:21:43.020Z,18.6
2017-07-19T01:22:50.518Z,18.6
2017-07-19T01:23:58.306Z,18.5
2017-07-19T01:25:05.464Z,18.5
2017-07-19T01:26:12.951Z,18.5
2017-07-19T01:27:20.422Z,18.5
2017-07-19T01:28:27.929Z,18.5
2017-07-19T01:29:35.708Z,18.5
2017-07-19T01:30:43.189Z,18.5
2017-07-19T01:31:50.677Z,18.4
2017-07-19T01:32:58.158Z,18.4
2017-07-19T01:34:05.312Z,18.4
2017-07-19T01:35:13.094Z,18.4
2017-07-19T01:36:20.573Z,18.4
2017-07-19T01:37:28.054Z,18.4
2017-07-19T01:38:35.534Z,18.4
2017-07-19T01:39:43.020Z,18.4
2017-07-19T01:40:50.802Z,18.4
2017-07-19T01:41:58.282Z,18.4
2017-07-19T01:43:05.434Z,18.4
2017-07-19T01:44:12.919Z,18.3
2017-07-19T01:45:20.069Z,18.3
2017-07-19T01:46:27.854Z,18.3
2017-07-19T01:47:35.336Z,18.3
2017-07-19T01:48:42.819Z,18.3
2017-07-19T01:49:50.301Z,18.3
2017-07-19T01:50:57.778Z,18.3
2017-07-19T01:52:05.564Z,18.3
2017-07-19T01:53:13.085Z,18.3
2017-07-19T01:54:20.564Z,18.3
2017-07-19T01:55:27.722Z,18.3
2017-07-19T01:56:34.878Z,18.3
2017-07-19T01:57:42.654Z,18.2
2017-07-19T01:58:50.132Z,18.2
2017-07-19T01:59:57.619Z,18.2
2017-07-19T02:01:05.097Z,18.2
2017-07-19T02:02:12.246Z,18.2
2017-07-19T02:03:20.028Z,18.1
2017-07-19T02:04:27.508Z,18.1
2017-07-19T02:05:34.988Z,18.1
2017-07-19T02:06:42.469Z,18.1
2017-07-19T02:07:49.614Z,18.1
2017-07-19T02:08:57.063Z,18.1
2017-07-19T02:10:04.541Z,18.1
2017-07-19T02:11:12.034Z,18.1
2017-07-19T02:12:19.519Z,18.1
2017-07-19T02:13:27.000Z,18.1
2017-07-19T02:14:34.787Z,18.1
2017-07-19T02:15:42.269Z,18.1
2017-07-19T02:16:49.752Z,18.1
2017-07-19T02:17:57.232Z,18.1
2017-07-19T02:19:04.706Z,18.1
2017-07-19T02:20:12.494Z,18.1
2017-07-19T02:21:19.977Z,18.1
2017-07-19T02:22:27.464Z,18.1
2017-07-19T02:23:34.940Z,18.1
2017-07-19T02:24:42.424Z,18.1
2017-07-19T02:25:50.208Z,18.1
2017-07-19T02:26:57.692Z,18.1
2017-07-19T02:28:05.180Z,18.1
2017-07-19T02:29:12.338Z,18.1
2017-07-19T02:30:19.484Z,18.1
2017-07-19T02:31:27.267Z,18.1
2017-07-19T02:32:34.419Z,18.1
2017-07-19T02:33:41.904Z,18.1
2017-07-19T02:34:49.056Z,18.1
2017-07-19T02:35:56.533Z,18.1
2017-07-19T02:37:03.997Z,18.1
2017-07-19T02:38:11.170Z,18.1
2017-07-19T02:39:18.654Z,18.1
2017-07-19T02:40:26.135Z,18.2
2017-07-19T02:41:33.624Z,18.2
2017-07-19T02:42:41.078Z,18.2
2017-07-19T02:43:48.559Z,18.2
2017-07-19T02:44:55.384Z,18.1
2017-07-19T02:46:02.873Z,18.1
2017-07-19T02:47:10.365Z,18.1
2017-07-19T02:48:18.160Z,18.1
2017-07-19T02:49:25.645Z,18.1
2017-07-19T02:50:33.130Z,18
2017-07-19T02:51:39.949Z,18
2017-07-19T02:52:47.424Z,18
2017-07-19T02:53:55.211Z,18
2017-07-19T02:55:02.701Z,17.9
2017-07-19T02:56:10.209Z,17.9
2017-07-19T02:57:17.690Z,17.9
2017-07-19T02:58:25.178Z,17.9
2017-07-19T02:59:32.958Z,17.9
2017-07-19T03:00:40.436Z,17.9
2017-07-19T03:01:47.921Z,17.8
2017-07-19T03:02:55.406Z,17.8
2017-07-19T03:04:02.888Z,17.8
2017-07-19T03:05:10.671Z,17.8
2017-07-19T03:06:18.153Z,17.7
2017-07-19T03:07:25.632Z,17.7
2017-07-19T03:08:32.786Z,17.7
2017-07-19T03:09:40.263Z,17.7
2017-07-19T03:10:48.057Z,17.7
2017-07-19T03:11:55.215Z,17.7
2017-07-19T03:13:02.691Z,17.7
2017-07-19T03:14:10.174Z,17.7
2017-07-19T03:15:17.326Z,17.6
2017-07-19T03:16:24.794Z,17.6
2017-07-19T03:17:32.273Z,17.6
2017-07-19T03:18:39.773Z,17.6
2017-07-19T03:19:46.934Z,17.6
2017-07-19T03:20:54.085Z,17.6
2017-07-19T03:22:01.863Z,17.6
2017-07-19T03:23:09.348Z,17.6
2017-07-19T03:24:16.830Z,17.5
2017-07-19T03:25:24.314Z,17.5
2017-07-19T03:26:31.140Z,17.5
2017-07-19T03:27:38.929Z,17.5
2017-07-19T03:28:46.411Z,17.5
2017-07-19T03:29:53.886Z,17.4
2017-07-19T03:31:01.368Z,17.4
2017-07-19T03:32:08.848Z,17.3
2017-07-19T03:33:16.310Z,17.3
2017-07-19T03:34:23.463Z,17.3
2017-07-19T03:35:30.947Z,17.3
2017-07-19T03:36:38.433Z,17.3
2017-07-19T03:37:45.914Z,17.3
2017-07-19T03:38:53.070Z,17.3
2017-07-19T03:40:00.556Z,17.3
2017-07-19T03:41:08.041Z,17.3
2017-07-19T03:42:15.523Z,17.3
2017-07-19T03:43:23.001Z,17.2
2017-07-19T03:44:30.791Z,17.2
2017-07-19T03:45:38.273Z,17.3
2017-07-19T03:46:45.428Z,17.3
2017-07-19T03:47:52.911Z,17.3
2017-07-19T03:49:00.396Z,17.3
2017-07-19T03:50:07.841Z,17.3
2017-07-19T03:51:15.363Z,17.3
2017-07-19T03:52:22.838Z,17.3
2017-07-19T03:53:30.319Z,17.4
2017-07-19T03:54:37.467Z,17.3
2017-07-19T03:55:45.252Z,17.3
2017-07-19T03:56:52.727Z,17.3
2017-07-19T03:58:00.208Z,17.4
2017-07-19T03:59:07.686Z,17.4
2017-07-19T04:00:15.170Z,17.4
2017-07-19T04:01:22.644Z,17.4
2017-07-19T04:02:30.123Z,17.4
2017-07-19T04:03:37.610Z,17.5
2017-07-19T04:04:44.754Z,17.5
2017-07-19T04:05:52.535Z,17.5
2017-07-19T04:07:00.018Z,17.5
2017-07-19T04:08:07.503Z,17.5
2017-07-19T04:09:15.003Z,17.5
2017-07-19T04:10:22.492Z,17.5
2017-07-19T04:11:30.290Z,17.5
2017-07-19T04:12:37.768Z,17.5
2017-07-19T04:13:45.249Z,17.5
2017-07-19T04:14:52.413Z,17.5
2017-07-19T04:15:59.575Z,17.5
2017-07-19T04:17:07.585Z,17.5
2017-07-19T04:18:15.067Z,17.5
2017-07-19T04:19:22.549Z,17.5
2017-07-19T04:20:30.039Z,17.6
2017-07-19T04:21:37.188Z,17.6
2017-07-19T04:22:44.990Z,17.5
2017-07-19T04:23:52.470Z,17.5
2017-07-19T04:24:59.617Z,17.5
2017-07-19T04:26:07.097Z,17.5
2017-07-19T04:27:14.574Z,17.5
2017-07-19T04:28:22.057Z,17.5
2017-07-19T04:29:29.541Z,17.5
2017-07-19T04:30:37.024Z,17.5
2017-07-19T04:31:44.505Z,17.5
2017-07-19T04:32:51.985Z,17.5
2017-07-19T04:33:59.438Z,17.5
2017-07-19T04:35:06.921Z,17.5
2017-07-19T04:36:14.414Z,17.6
2017-07-19T04:37:21.894Z,17.6
2017-07-19T04:38:29.375Z,17.6
2017-07-19T04:39:37.171Z,17.8
2017-07-19T04:40:44.327Z,17.8
2017-07-19T04:41:51.806Z,17.9
2017-07-19T04:42:58.960Z,17.9
2017-07-19T04:44:06.436Z,17.9
2017-07-19T04:45:13.894Z,18
2017-07-19T04:46:21.370Z,18
2017-07-19T04:47:28.862Z,18
2017-07-19T04:48:36.344Z,18
2017-07-19T04:49:43.831Z,18
2017-07-19T04:50:51.608Z,18
2017-07-19T04:51:58.760Z,18.1
2017-07-19T04:53:06.487Z,18
2017-07-19T04:54:13.634Z,18
2017-07-19T04:55:21.118Z,18
2017-07-19T04:56:28.898Z,18
2017-07-19T04:57:36.380Z,18
2017-07-19T04:58:43.864Z,18
2017-07-19T04:59:51.345Z,18
2017-07-19T05:00:58.824Z,18
2017-07-19T05:02:06.615Z,18
2017-07-19T05:03:14.103Z,18
2017-07-19T05:04:21.264Z,18
2017-07-19T05:05:28.990Z,18.1
2017-07-19T05:06:36.467Z,18.1
2017-07-19T05:07:43.965Z,18.2
2017-07-19T05:08:51.447Z,18.3
2017-07-19T05:09:58.608Z,18.3
2017-07-19T05:11:06.093Z,18.3
2017-07-19T05:12:13.578Z,18.4
2017-07-19T05:13:21.413Z,18.4
2017-07-19T05:14:28.558Z,18.4
2017-07-19T05:15:35.705Z,18.5
2017-07-19T05:16:43.184Z,18.5
2017-07-19T05:17:50.664Z,18.5
2017-07-19T05:18:58.493Z,18.5
2017-07-19T05:20:05.973Z,18.5
2017-07-19T05:21:13.125Z,18.5
2017-07-19T05:22:20.276Z,18.6
2017-07-19T05:23:27.755Z,18.6
2017-07-19T05:24:35.543Z,18.6
2017-07-19T05:25:43.022Z,18.6
2017-07-19T05:26:50.499Z,18.7
2017-07-19T05:27:57.984Z,18.8
2017-07-19T05:29:05.128Z,18.9
2017-07-19T05:30:12.912Z,18.9
2017-07-19T05:31:20.392Z,19
2017-07-19T05:32:27.873Z,19.1
2017-07-19T05:33:35.356Z,19.1
2017-07-19T05:34:42.502Z,19.2
2017-07-19T05:35:50.331Z,19.2
2017-07-19T05:36:57.153Z,19.4
2017-07-19T05:38:04.631Z,19.5
2017-07-19T05:39:12.111Z,19.6
2017-07-19T05:40:19.586Z,19.7
2017-07-19T05:41:27.412Z,19.8
2017-07-19T05:42:34.918Z,19.9
2017-07-19T05:43:42.396Z,20
2017-07-19T05:44:49.876Z,20.1
2017-07-19T05:45:57.355Z,20.2
2017-07-19T05:47:05.195Z,20.3
2017-07-19T05:48:12.360Z,20.5
2017-07-19T05:49:19.837Z,20.6
2017-07-19T05:50:27.320Z,20.7
2017-07-19T05:51:34.799Z,20.8
2017-07-19T05:52:42.635Z,20.9
2017-07-19T05:53:50.112Z,21
2017-07-19T05:54:57.591Z,21
2017-07-19T05:56:05.077Z,21.1
2017-07-19T05:57:12.574Z,21.3
2017-07-19T05:58:20.410Z,21.5
2017-07-19T05:59:27.892Z,21.6
2017-07-19T06:00:35.374Z,21.8
2017-07-19T06:01:42.852Z,21.9
2017-07-19T06:02:50.334Z,22.1
2017-07-19T06:03:58.116Z,22.2
2017-07-19T06:05:05.607Z,22.4
2017-07-19T06:06:13.089Z,22.6
2017-07-19T06:07:20.571Z,22.7
2017-07-19T06:08:28.053Z,22.7
2017-07-19T06:09:35.835Z,22.7
2017-07-19T06:10:43.314Z,22.8
2017-07-19T06:11:50.470Z,22.9
2017-07-19T06:12:57.949Z,22.9
2017-07-19T06:14:05.432Z,23.1
2017-07-19T06:15:13.226Z,23.3
2017-07-19T06:16:20.717Z,23.3
2017-07-19T06:17:28.193Z,23.3
2017-07-19T06:18:35.353Z,23.4
2017-07-19T06:19:42.504Z,23.5
2017-07-19T06:20:50.005Z,23.5
2017-07-19T06:21:57.493Z,23.6
2017-07-19T06:23:04.646Z,23.8
2017-07-19T06:24:12.131Z,24
2017-07-19T06:25:19.612Z,24.1
2017-07-19T06:26:27.446Z,24.3
2017-07-19T06:27:34.930Z,24.2
2017-07-19T06:28:42.417Z,24.3
2017-07-19T06:29:49.905Z,24.4
2017-07-19T06:30:57.390Z,24.4
2017-07-19T06:32:04.898Z,24.6
2017-07-19T06:33:12.384Z,24.7
2017-07-19T06:34:19.869Z,24.8
2017-07-19T06:35:27.022Z,24.9
2017-07-19T06:36:34.514Z,25.1
2017-07-19T06:37:42.351Z,25.2
2017-07-19T06:38:49.519Z,25.2
2017-07-19T06:39:57.009Z,25.2
2017-07-19T06:41:04.498Z,25.2
2017-07-19T06:42:11.988Z,25.2
2017-07-19T06:43:19.770Z,25.2
2017-07-19T06:44:26.921Z,25.2
2017-07-19T06:45:34.407Z,25.1
2017-07-19T06:46:41.893Z,25
2017-07-19T06:47:48.720Z,25.2
2017-07-19T06:48:56.184Z,25.4
2017-07-19T06:50:03.669Z,25.5
2017-07-19T06:51:11.155Z,25.5
2017-07-19T06:52:18.643Z,25.6
2017-07-19T06:53:26.134Z,25.8
2017-07-19T06:54:33.645Z,25.9
2017-07-19T06:55:41.133Z,26
2017-07-19T06:56:48.300Z,26.1
2017-07-19T06:57:55.792Z,26.2
2017-07-19T06:59:03.272Z,26.1
2017-07-19T07:00:11.108Z,25.9
2017-07-19T07:01:18.613Z,25.8
2017-07-19T07:02:25.434Z,25.7
2017-07-19T07:03:32.914Z,25.7
2017-07-19T07:04:40.413Z,25.6
2017-07-19T07:05:47.923Z,25.7
2017-07-19T07:06:55.412Z,25.9
2017-07-19T07:08:02.564Z,26.1
2017-07-19T07:09:10.062Z,25.9
2017-07-19T07:10:17.550Z,25.9
2017-07-19T07:11:25.381Z,26.2
2017-07-19T07:12:32.536Z,26.4
2017-07-19T07:13:40.027Z,26.5
2017-07-19T07:14:47.519Z,26.6
2017-07-19T07:15:55.003Z,26.5
2017-07-19T07:17:02.485Z,26.8
2017-07-19T07:18:09.972Z,26.9
2017-07-19T07:19:17.757Z,27.2
2017-07-19T07:20:25.245Z,27.4
2017-07-19T07:21:32.737Z,27.5
2017-07-19T07:22:40.230Z,27.5
2017-07-19T07:23:48.016Z,27.5
2017-07-19T07:24:55.503Z,27.4
2017-07-19T07:26:03.005Z,27.3
2017-07-19T07:27:10.495Z,27.4
2017-07-19T07:28:17.660Z,27.3
2017-07-19T07:29:25.120Z,27.2
2017-07-19T07:30:32.605Z,27.3
2017-07-19T07:31:40.086Z,27.3
2017-07-19T07:32:47.574Z,27.2
2017-07-19T07:33:55.067Z,27.2
2017-07-19T07:35:02.863Z,27.3
2017-07-19T07:36:10.349Z,27.5
2017-07-19T07:37:17.509Z,27.7
2017-07-19T07:38:25.002Z,27.8
2017-07-19T07:39:32.491Z,28
2017-07-19T07:40:39.975Z,27.8
2017-07-19T07:41:47.463Z,27.9
2017-07-19T07:42:54.951Z,28
2017-07-19T07:44:02.441Z,28.1
2017-07-19T07:45:09.924Z,28.3
2017-07-19T07:46:17.429Z,28.5
2017-07-19T07:47:24.915Z,28.7
2017-07-19T07:48:32.421Z,28.9
2017-07-19T07:49:39.915Z,29.1
2017-07-19T07:50:47.403Z,29.3
2017-07-19T07:51:55.242Z,29.5
2017-07-19T07:53:02.733Z,29.5
2017-07-19T07:54:10.214Z,29.6
2017-07-19T07:55:17.378Z,29.4
2017-07-19T07:56:24.870Z,29.5
2017-07-19T07:57:32.705Z,29.6
2017-07-19T07:58:40.192Z,29.7
2017-07-19T07:59:47.030Z,29.7
2017-07-19T08:00:54.513Z,29.4
2017-07-19T08:02:01.680Z,29
2017-07-19T08:03:09.520Z,28.6
2017-07-19T08:04:17.009Z,28.4
2017-07-19T08:05:24.495Z,28
2017-07-19T08:06:31.654Z,28.1
2017-07-19T08:07:39.142Z,28.5
2017-07-19T08:08:46.977Z,28.8
2017-07-19T08:09:54.488Z,29.1
2017-07-19T08:11:01.981Z,29.2
2017-07-19T08:12:09.464Z,29.2
2017-07-19T08:13:16.951Z,28.7
2017-07-19T08:14:24.816Z,28.8
2017-07-19T08:15:32.304Z,29.2
2017-07-19T08:16:39.791Z,29.4
2017-07-19T08:17:47.288Z,29.5
2017-07-19T08:18:54.776Z,29.9
2017-07-19T08:20:02.610Z,29.8
2017-07-19T08:21:10.095Z,29.9
2017-07-19T08:22:17.592Z,30.1
2017-07-19T08:23:25.088Z,30.3
2017-07-19T08:24:32.577Z,30.3
2017-07-19T08:25:40.035Z,30.2
2017-07-19T08:26:47.525Z,30.3
2017-07-19T08:27:55.019Z,30.5
2017-07-19T08:29:02.510Z,31
2017-07-19T08:30:10.014Z,31.3
2017-07-19T08:31:17.818Z,31.3
2017-07-19T08:32:25.319Z,31.2
2017-07-19T08:33:32.811Z,30.9
2017-07-19T08:34:40.306Z,30.7
2017-07-19T08:35:47.794Z,30.6
2017-07-19T08:36:55.633Z,30.6
2017-07-19T08:38:03.134Z,30.5
2017-07-19T08:39:10.627Z,30.8
2017-07-19T08:40:18.119Z,30.3
2017-07-19T08:41:25.611Z,29.6
2017-07-19T08:42:33.477Z,29.7
2017-07-19T08:43:40.968Z,30
2017-07-19T08:44:48.123Z,30.4
2017-07-19T08:45:55.610Z,30.6
2017-07-19T08:47:03.101Z,30.7
2017-07-19T08:48:10.590Z,30.8
2017-07-19T08:49:17.755Z,30.7
2017-07-19T08:50:25.243Z,30.5
2017-07-19T08:51:32.731Z,30.7
2017-07-19T08:52:40.524Z,30.9
2017-07-19T08:53:48.009Z,31.2
2017-07-19T08:54:55.506Z,31.2
2017-07-19T08:56:02.673Z,31.1
2017-07-19T08:57:10.155Z,31
2017-07-19T08:58:17.957Z,31.1
2017-07-19T08:59:25.450Z,30.7
2017-07-19T09:00:32.942Z,30.5
2017-07-19T09:01:40.431Z,30.4
2017-07-19T09:02:47.930Z,30.8
2017-07-19T09:03:55.723Z,31
2017-07-19T09:05:03.214Z,30.9
2017-07-19T09:06:10.052Z,31
2017-07-19T09:07:17.545Z,31.3
2017-07-19T09:08:25.032Z,31.6
2017-07-19T09:09:32.532Z,32
2017-07-19T09:10:39.687Z,31.9
2017-07-19T09:11:47.182Z,31.9
2017-07-19T09:12:54.674Z,31.8
2017-07-19T09:14:02.485Z,31.6
2017-07-19T09:15:09.327Z,31.7
2017-07-19T09:16:16.823Z,32
2017-07-19T09:17:23.984Z,32
2017-07-19T09:18:31.472Z,32
2017-07-19T09:19:39.262Z,32
2017-07-19T09:20:46.759Z,32.2
2017-07-19T09:21:54.257Z,32
2017-07-19T09:23:01.762Z,32.1
2017-07-19T09:24:09.254Z,32.1
2017-07-19T09:25:17.044Z,32
2017-07-19T09:26:24.204Z,32
2017-07-19T09:27:31.696Z,32.1
2017-07-19T09:28:39.184Z,32.2
2017-07-19T09:29:46.678Z,32.3
2017-07-19T09:30:54.465Z,32.3
2017-07-19T09:32:01.958Z,32.4
2017-07-19T09:33:09.453Z,32.4
2017-07-19T09:34:16.943Z,32.1
2017-07-19T09:35:24.108Z,32.2
2017-07-19T09:36:31.606Z,32.4
2017-07-19T09:37:39.096Z,32.4
2017-07-19T09:38:46.218Z,32.3
2017-07-19T09:39:53.397Z,32.2
2017-07-19T09:41:00.894Z,32.3
2017-07-19T09:42:08.682Z,32.2
2017-07-19T09:43:16.170Z,32.4
2017-07-19T09:44:23.660Z,32.5
2017-07-19T09:45:31.151Z,32.3
2017-07-19T09:46:38.642Z,32.4
2017-07-19T09:47:46.109Z,32.3
2017-07-19T09:48:53.613Z,32.2
2017-07-19T09:50:01.097Z,32.1
2017-07-19T09:51:08.589Z,32.2
2017-07-19T09:52:16.082Z,32.5
2017-07-19T09:53:23.570Z,32.7
2017-07-19T09:54:31.068Z,33.1
2017-07-19T09:55:38.567Z,33.6
2017-07-19T09:56:46.050Z,34.1
2017-07-19T09:57:53.554Z,34
2017-07-19T09:59:01.345Z,34
2017-07-19T10:00:08.838Z,34.1
2017-07-19T10:01:16.333Z,33.9
2017-07-19T10:02:23.828Z,33.7
2017-07-19T10:03:31.330Z,33.1
2017-07-19T10:04:39.120Z,33.2
2017-07-19T10:05:46.251Z,33.3
2017-07-19T10:06:53.748Z,33.4
2017-07-19T10:08:01.238Z,33.6
2017-07-19T10:09:08.728Z,33.6
2017-07-19T10:10:16.528Z,33.5
2017-07-19T10:11:24.032Z,33.4
2017-07-19T10:12:31.522Z,33.3
2017-07-19T10:13:39.023Z,33.7
2017-07-19T10:14:46.512Z,34.1
2017-07-19T10:15:54.010Z,34.5
2017-07-19T10:17:01.509Z,34.5
2017-07-19T10:18:08.669Z,33.9
2017-07-19T10:19:16.158Z,33.7
2017-07-19T10:20:23.652Z,33.9
2017-07-19T10:21:31.444Z,33.8
2017-07-19T10:22:38.606Z,33.8
2017-07-19T10:23:46.098Z,34.1
2017-07-19T10:24:53.619Z,34.2
2017-07-19T10:26:01.107Z,33.7
2017-07-19T10:27:08.897Z,33.9
2017-07-19T10:28:16.057Z,34.2
2017-07-19T10:29:23.555Z,34.6
2017-07-19T10:30:31.043Z,34.9
2017-07-19T10:31:38.548Z,34.9
2017-07-19T10:32:45.713Z,35.1
2017-07-19T10:33:52.882Z,35.1
2017-07-19T10:35:00.378Z,35.1
2017-07-19T10:36:07.534Z,34.7
2017-07-19T10:37:15.028Z,34.4
2017-07-19T10:38:22.824Z,34.3
2017-07-19T10:39:29.978Z,34.2
2017-07-19T10:40:37.467Z,33.8
2017-07-19T10:41:44.960Z,33.8
2017-07-19T10:42:52.454Z,33.8
2017-07-19T10:44:00.249Z,33.6
2017-07-19T10:45:07.423Z,33.9
2017-07-19T10:46:14.916Z,34.1
2017-07-19T10:47:22.423Z,34.3
2017-07-19T10:48:29.926Z,34.2
2017-07-19T10:49:37.707Z,34
2017-07-19T10:50:45.209Z,33.9
2017-07-19T10:51:52.706Z,34
2017-07-19T10:53:00.198Z,33.9
2017-07-19T10:54:07.694Z,33.8
2017-07-19T10:55:14.862Z,33.9
2017-07-19T10:56:22.358Z,33.6
2017-07-19T10:57:29.863Z,33.7
2017-07-19T10:58:37.352Z,33.7
2017-07-19T10:59:44.850Z,33.7
2017-07-19T11:00:52.653Z,33.7
2017-07-19T11:01:59.167Z,33.9
2017-07-19T11:03:06.661Z,34.1
2017-07-19T11:04:14.168Z,34.1
2017-07-19T11:05:21.663Z,34
2017-07-19T11:06:29.459Z,33.9
2017-07-19T11:07:36.949Z,34.2
2017-07-19T11:08:44.105Z,34.5
2017-07-19T11:09:51.600Z,34.2
2017-07-19T11:10:59.087Z,34.1
2017-07-19T11:12:06.541Z,34
2017-07-19T11:13:14.038Z,34.2
2017-07-19T11:14:21.529Z,34
2017-07-19T11:15:28.372Z,34
2017-07-19T11:16:35.861Z,34.3
2017-07-19T11:17:43.657Z,34.7
2017-07-19T11:18:51.180Z,34.6
2017-07-19T11:19:58.344Z,34.8
2017-07-19T11:21:05.843Z,34.6
2017-07-19T11:22:13.341Z,34.5
2017-07-19T11:23:21.140Z,34.5
2017-07-19T11:24:28.625Z,34.6
2017-07-19T11:25:36.126Z,34.4
2017-07-19T11:26:43.293Z,34.4
2017-07-19T11:27:50.784Z,34.8
2017-07-19T11:28:58.575Z,35.1
2017-07-19T11:30:06.066Z,34.8
2017-07-19T11:31:13.561Z,34.9
2017-07-19T11:32:21.049Z,34.8
2017-07-19T11:33:28.544Z,34.3
2017-07-19T11:34:36.032Z,34.3
2017-07-19T11:35:43.524Z,34.5
2017-07-19T11:36:51.028Z,34.7
2017-07-19T11:37:58.521Z,34.8
2017-07-19T11:39:06.010Z,34.9
2017-07-19T11:40:13.148Z,35.1
2017-07-19T11:41:20.646Z,35
2017-07-19T11:42:28.139Z,35
2017-07-19T11:43:35.635Z,34.9
2017-07-19T11:44:43.130Z,35
2017-07-19T11:45:50.928Z,34.8
2017-07-19T11:46:58.419Z,34.5
2017-07-19T11:48:05.917Z,34.6
2017-07-19T11:49:13.080Z,34.9
2017-07-19T11:50:20.240Z,35.1
2017-07-19T11:51:28.040Z,35.5
2017-07-19T11:52:35.542Z,35.8
2017-07-19T11:53:43.037Z,36.2
2017-07-19T11:54:50.198Z,36.2
2017-07-19T11:55:57.693Z,35.7
2017-07-19T11:57:05.191Z,35.3
2017-07-19T11:58:12.688Z,35
2017-07-19T11:59:20.180Z,34.6
2017-07-19T12:00:27.677Z,34.7
2017-07-19T12:01:35.479Z,34.8
2017-07-19T12:02:42.976Z,34.6
2017-07-19T12:03:50.470Z,34.7
2017-07-19T12:04:57.968Z,35
2017-07-19T12:06:05.464Z,35.5
2017-07-19T12:07:13.260Z,36.2
2017-07-19T12:08:20.434Z,36
2017-07-19T12:09:27.923Z,35.7
2017-07-19T12:10:35.419Z,35.5
2017-07-19T12:11:42.264Z,35.9
2017-07-19T12:12:50.056Z,36.4
2017-07-19T12:13:57.552Z,36.1
2017-07-19T12:15:04.714Z,35.6
2017-07-19T12:16:11.888Z,35.7
2017-07-19T12:17:19.395Z,35.9
2017-07-19T12:18:27.195Z,35.6
2017-07-19T12:19:34.684Z,35.6
2017-07-19T12:20:41.850Z,36
2017-07-19T12:21:49.021Z,36.1
2017-07-19T12:22:56.527Z,36.3
2017-07-19T12:24:04.018Z,36.4
2017-07-19T12:25:11.523Z,36.6
2017-07-19T12:26:18.691Z,36.6
2017-07-19T12:27:25.853Z,36.6
2017-07-19T12:28:33.346Z,36.4
2017-07-19T12:29:41.138Z,36.6
2017-07-19T12:30:48.640Z,36.7
2017-07-19T12:31:56.137Z,36.5
2017-07-19T12:33:03.640Z,36.1
2017-07-19T12:34:11.144Z,35.9
2017-07-19T12:35:18.992Z,35.8
2017-07-19T12:36:26.491Z,35.9
2017-07-19T12:37:33.983Z,36.5
2017-07-19T12:38:41.151Z,37.1
2017-07-19T12:39:48.645Z,37.7
2017-07-19T12:40:56.159Z,37.9
2017-07-19T12:42:03.657Z,37.7
2017-07-19T12:43:11.154Z,37.6
2017-07-19T12:44:17.955Z,37.2
2017-07-19T12:45:25.454Z,36.5
2017-07-19T12:46:33.307Z,36
2017-07-19T12:47:40.802Z,35.9
2017-07-19T12:48:47.964Z,35.8
2017-07-19T12:49:55.488Z,35.8
2017-07-19T12:51:02.979Z,35.8
2017-07-19T12:52:10.463Z,35.6
2017-07-19T12:53:17.297Z,35.6
2017-07-19T12:54:24.792Z,35.7
2017-07-19T12:55:32.291Z,36
2017-07-19T12:56:39.789Z,36
2017-07-19T12:57:47.633Z,36.4
2017-07-19T12:58:54.812Z,36.7
2017-07-19T13:00:02.320Z,37
2017-07-19T13:01:09.815Z,37
2017-07-19T13:02:17.228Z,36.5
2017-07-19T13:03:25.075Z,36.4
2017-07-19T13:04:32.570Z,36.4
2017-07-19T13:05:40.072Z,36.7
2017-07-19T13:06:47.563Z,36.4
2017-07-19T13:07:55.082Z,36.6
2017-07-19T13:09:02.585Z,36.8
2017-07-19T13:10:09.752Z,37.2
2017-07-19T13:11:17.246Z,37.2
2017-07-19T13:12:24.748Z,37.1
2017-07-19T13:13:32.242Z,37
2017-07-19T13:14:40.036Z,37
2017-07-19T13:15:47.193Z,37.4
2017-07-19T13:16:54.696Z,37.8
2017-07-19T13:18:02.193Z,37.9
2017-07-19T13:19:09.685Z,38.2
2017-07-19T13:20:17.546Z,38.5
2017-07-19T13:21:24.711Z,38.7
2017-07-19T13:22:32.219Z,38.8
2017-07-19T13:23:39.721Z,38.3
2017-07-19T13:24:46.895Z,38.1
2017-07-19T13:25:54.734Z,37.6
2017-07-19T13:27:02.231Z,37.1
2017-07-19T13:28:09.734Z,37.1
2017-07-19T13:29:17.223Z,37.4
2017-07-19T13:30:24.724Z,37.8
2017-07-19T13:31:32.243Z,38
2017-07-19T13:32:39.743Z,37.3
2017-07-19T13:33:47.231Z,36.8
2017-07-19T13:34:54.725Z,36.3
2017-07-19T13:36:02.224Z,36.4
2017-07-19T13:37:09.742Z,36.5
2017-07-19T13:38:17.239Z,36.8
2017-07-19T13:39:24.405Z,36.9
2017-07-19T13:40:31.903Z,36.7
2017-07-19T13:41:39.433Z,36.8
2017-07-19T13:42:47.245Z,37
2017-07-19T13:43:54.745Z,37.1
2017-07-19T13:45:02.232Z,37.1
2017-07-19T13:46:09.727Z,37.3
2017-07-19T13:47:17.219Z,37.6
2017-07-19T13:48:25.068Z,37.9
2017-07-19T13:49:32.564Z,37.9
2017-07-19T13:50:40.061Z,37
2017-07-19T13:51:47.560Z,37
2017-07-19T13:52:55.053Z,37.2
2017-07-19T13:54:02.903Z,37
2017-07-19T13:55:10.406Z,36.5
2017-07-19T13:56:17.909Z,36.4
2017-07-19T13:57:25.401Z,36.6
2017-07-19T13:58:32.576Z,36.8
2017-07-19T13:59:40.433Z,36.5
2017-07-19T14:00:47.927Z,36.4
2017-07-19T14:01:55.098Z,36.1
2017-07-19T14:03:02.263Z,35.7
2017-07-19T14:04:09.759Z,35.9
2017-07-19T14:05:17.612Z,36.4
2017-07-19T14:06:25.136Z,36.6
2017-07-19T14:07:32.635Z,36.6
2017-07-19T14:08:40.130Z,36.8
2017-07-19T14:09:47.629Z,36.8
2017-07-19T14:10:55.425Z,36.9
2017-07-19T14:12:02.589Z,36.8
2017-07-19T14:13:10.088Z,36.8
2017-07-19T14:14:17.596Z,37
2017-07-19T14:15:25.079Z,37.3
2017-07-19T14:16:32.603Z,37.3
2017-07-19T14:17:40.097Z,37.3
2017-07-19T14:18:47.591Z,37.5
2017-07-19T14:19:55.103Z,37.1
2017-07-19T14:21:02.602Z,36.6
2017-07-19T14:22:10.400Z,36.9
2017-07-19T14:23:17.901Z,37.1
2017-07-19T14:24:24.735Z,36.9
2017-07-19T14:25:32.234Z,36.9
2017-07-19T14:26:39.400Z,36.9
2017-07-19T14:27:47.257Z,37
2017-07-19T14:28:54.757Z,37
2017-07-19T14:30:01.939Z,37.2
2017-07-19T14:31:09.439Z,37.3
2017-07-19T14:32:16.939Z,37.3
2017-07-19T14:33:24.792Z,37.6
2017-07-19T14:34:32.281Z,37.6
2017-07-19T14:35:39.774Z,37.2
2017-07-19T14:36:47.280Z,36.7
2017-07-19T14:37:54.452Z,36.7
2017-07-19T14:39:02.300Z,36.9
2017-07-19T14:40:09.481Z,37.4
2017-07-19T14:41:16.999Z,37.4
2017-07-19T14:42:24.171Z,37.5
2017-07-19T14:43:31.688Z,37.8
2017-07-19T14:44:39.534Z,38.1
2017-07-19T14:45:47.034Z,38.3
2017-07-19T14:46:54.529Z,38
2017-07-19T14:48:02.033Z,38.3
2017-07-19T14:49:09.205Z,38.4
2017-07-19T14:50:17.045Z,38.6
2017-07-19T14:51:24.545Z,38.7
2017-07-19T14:52:31.713Z,38.4
2017-07-19T14:53:39.216Z,38.3
2017-07-19T14:54:46.716Z,38.3
2017-07-19T14:55:54.563Z,38.3
2017-07-19T14:57:02.064Z,38.4
2017-07-19T14:58:09.558Z,38.3
2017-07-19T14:59:17.057Z,38.4
2017-07-19T15:00:24.553Z,38.4
2017-07-19T15:01:32.401Z,38.5
2017-07-19T15:02:39.895Z,38.4
2017-07-19T15:03:47.389Z,38.1